sensor_id;sensor_type;location;lat;lon;timestamp;P1;P2;P0
76330;PMS7003;65148;51.912;15.570;2023-02-15T00:08:26;90;68;41
76330;PMS7003;65148;51.912;15.570;2023-02-15T00:23:54;98;75;44
76330;PMS7003;65148;51.912;15.570;2023-02-15T00:38:55;81;61;38
76330;PMS7003;65148;51.912;15.570;2023-02-15T00:53:56;96;70;43
76330;PMS7003;65148;51.912;15.570;2023-02-15T01:08:57;89;68;41
76330;PMS7003;65148;51.912;15.570;2023-02-15T01:23:58;81;62;33
76330;PMS7003;65148;51.912;15.570;2023-02-15T01:39:14;84;62;37
76330;PMS7003;65148;51.912;15.570;2023-02-15T01:54:23;74;56;33
76330;PMS7003;65148;51.912;15.570;2023-02-15T02:09:28;61;48;27
76330;PMS7003;65148;51.912;15.570;2023-02-15T02:39:59;44;38;23
76330;PMS7003;65148;51.912;15.570;2023-02-15T03:10:19;33;30;18
76330;PMS7003;65148;51.912;15.570;2023-02-15T03:25:40;35;28;17
76330;PMS7003;65148;51.912;15.570;2023-02-15T03:40:44;43;36;21
76330;PMS7003;65148;51.912;15.570;2023-02-15T03:55:59;44;38;22
76330;PMS7003;65148;51.912;15.570;2023-02-15T04:11:23;45;40;22
76330;PMS7003;65148;51.912;15.570;2023-02-15T04:26:24;62;48;28
76330;PMS7003;65148;51.912;15.570;2023-02-15T04:41:25;52;42;21
76330;PMS7003;65148;51.912;15.570;2023-02-15T04:56:26;47;39;25
76330;PMS7003;65148;51.912;15.570;2023-02-15T05:11:52;49;40;23
76330;PMS7003;65148;51.912;15.570;2023-02-15T05:26:52;54;42;26
76330;PMS7003;65148;51.912;15.570;2023-02-15T05:42:05;55;42;26
76330;PMS7003;65148;51.912;15.570;2023-02-15T05:57:06;64;47;28
76330;PMS7003;65148;51.912;15.570;2023-02-15T06:12:22;55;42;26
76330;PMS7003;65148;51.912;15.570;2023-02-15T06:27:23;54;43;27
76330;PMS7003;65148;51.912;15.570;2023-02-15T06:42:24;64;50;30
76330;PMS7003;65148;51.912;15.570;2023-02-15T06:57:25;68;54;31
76330;PMS7003;65148;51.912;15.570;2023-02-15T07:12:26;82;63;39
76330;PMS7003;65148;51.912;15.570;2023-02-15T07:27:56;50;38;15
76330;PMS7003;65148;51.912;15.570;2023-02-15T07:42:58;64;51;31
76330;PMS7003;65148;51.912;15.570;2023-02-15T07:57:59;54;43;30
76330;PMS7003;65148;51.912;15.570;2023-02-15T08:13:00;72;58;33
76330;PMS7003;65148;51.912;15.570;2023-02-15T08:28:23;79;61;35
76330;PMS7003;65148;51.912;15.570;2023-02-15T08:43:24;72;56;33
76330;PMS7003;65148;51.912;15.570;2023-02-15T08:58:25;71;56;32
76330;PMS7003;65148;51.912;15.570;2023-02-15T09:13:26;63;50;32
76330;PMS7003;65148;51.912;15.570;2023-02-15T09:28:53;67;53;33
76330;PMS7003;65148;51.912;15.570;2023-02-15T09:59:19;61;48;30
76330;PMS7003;65148;51.912;15.570;2023-02-15T10:30:22;64;49;28
76330;PMS7003;65148;51.912;15.570;2023-02-15T10:45:17;56;46;26
76330;PMS7003;65148;51.912;15.570;2023-02-15T11:00:40;52;42;26
76330;PMS7003;65148;51.912;15.570;2023-02-15T11:15:52;57;42;25
76330;PMS7003;65148;51.912;15.570;2023-02-15T11:30:57;53;43;24
76330;PMS7003;65148;51.912;15.570;2023-02-15T11:46:20;50;41;26
76330;PMS7003;65148;51.912;15.570;2023-02-15T12:16:40;48;38;24
76330;PMS7003;65148;51.912;15.570;2023-02-15T12:32:01;49;37;23
76330;PMS7003;65148;51.912;15.570;2023-02-15T12:47:04;42;35;24
76330;PMS7003;65148;51.912;15.570;2023-02-15T13:02:09;43;36;24
76330;PMS7003;65148;51.912;15.570;2023-02-15T13:17:42;47;40;26
76330;PMS7003;65148;51.912;15.570;2023-02-15T13:32:44;50;41;26
76330;PMS7003;65148;51.912;15.570;2023-02-15T14:48:55;54;43;27
76330;PMS7003;65148;51.912;15.570;2023-02-15T15:04:06;56;45;27
76330;PMS7003;65148;51.912;15.570;2023-02-15T15:49:54;87;63;36
76330;PMS7003;65148;51.912;15.570;2023-02-15T16:05:11;81;62;36
76330;PMS7003;65148;51.912;15.570;2023-02-15T16:20:17;116;94;49
76330;PMS7003;65148;51.912;15.570;2023-02-15T16:35:22;84;65;38
76330;PMS7003;65148;51.912;15.570;2023-02-15T17:05:47;64;51;31
76330;PMS7003;65148;51.912;15.570;2023-02-15T17:20:52;76;57;38
76330;PMS7003;65148;51.912;15.570;2023-02-15T17:51:30;87;62;38
76330;PMS7003;65148;51.912;15.570;2023-02-15T18:06:31;67;53;31
76330;PMS7003;65148;51.912;15.570;2023-02-15T18:21:46;69;54;32
76330;PMS7003;65148;51.912;15.570;2023-02-15T18:37:19;58;47;30
76330;PMS7003;65148;51.912;15.570;2023-02-15T18:52:22;74;57;36
76330;PMS7003;65148;51.912;15.570;2023-02-15T19:07:27;60;48;26
76330;PMS7003;65148;51.912;15.570;2023-02-15T19:22:57;60;45;27
76330;PMS7003;65148;51.912;15.570;2023-02-15T19:38:01;88;68;41
76330;PMS7003;65148;51.912;15.570;2023-02-15T19:53:08;87;67;42
76330;PMS7003;65148;51.912;15.570;2023-02-15T20:08:41;104;83;45
76330;PMS7003;65148;51.912;15.570;2023-02-15T20:23:44;111;87;52
76330;PMS7003;65148;51.912;15.570;2023-02-15T20:38:46;125;102;55
76330;PMS7003;65148;51.912;15.570;2023-02-15T20:53:47;92;67;40
76330;PMS7003;65148;51.912;15.570;2023-02-15T21:09:13;91;68;39
76330;PMS7003;65148;51.912;15.570;2023-02-15T21:24:19;82;63;38
76330;PMS7003;65148;51.912;15.570;2023-02-15T21:39:24;108;90;51
76330;PMS7003;65148;51.912;15.570;2023-02-15T21:54:28;99;76;44
76330;PMS7003;65148;51.912;15.570;2023-02-15T22:09:44;95;74;44
76330;PMS7003;65148;51.912;15.570;2023-02-15T22:24:45;93;71;39
76330;PMS7003;65148;51.912;15.570;2023-02-15T22:39:46;61;50;27
76330;PMS7003;65148;51.912;15.570;2023-02-15T22:54:48;77;61;37
76330;PMS7003;65148;51.912;15.570;2023-02-15T23:10:15;75;59;35
76330;PMS7003;65148;51.912;15.570;2023-02-15T23:25:23;59;49;32
76330;PMS7003;65148;51.912;15.570;2023-02-15T23:40:27;47;41;25
76330;PMS7003;65148;51.912;15.570;2023-02-15T23:55:59;67;52;31
